createdAt,value
2019-04-14T00:00:38.244Z,-0.30
2019-04-14T00:03:26.170Z,-0.60
2019-04-14T00:06:00.488Z,-0.40
2019-04-14T00:08:31.152Z,-0.50
2019-04-14T00:11:01.833Z,-0.70
2019-04-14T00:13:32.814Z,-0.40
2019-04-14T00:16:03.354Z,-0.50
2019-04-14T00:18:33.906Z,-0.70
2019-04-14T00:21:04.559Z,-0.80
2019-04-14T00:23:35.180Z,-0.50
2019-04-14T00:26:26.966Z,-0.90
2019-04-14T00:28:58.266Z,-0.90
2019-04-14T00:31:28.970Z,-0.80
2019-04-14T00:34:02.896Z,-0.90
2019-04-14T00:37:01.363Z,-0.90
2019-04-14T00:39:37.933Z,-1.10
2019-04-14T00:42:34.101Z,-1.10
2019-04-14T00:45:11.225Z,-1.20
2019-04-14T00:48:03.516Z,-1.20
2019-04-14T00:50:30.202Z,-1.10
2019-04-14T00:53:01.222Z,-1.30
2019-04-14T00:55:31.800Z,-1.30
2019-04-14T00:58:02.226Z,-1.40
2019-04-14T01:00:32.675Z,-1.20
2019-04-14T01:03:03.128Z,-1.50
2019-04-14T01:05:34.879Z,-1.40
2019-04-14T01:08:05.847Z,-1.40
2019-04-14T01:10:36.825Z,-1.20
2019-04-14T01:13:10.735Z,-1.20
2019-04-14T01:15:52.587Z,-1.40
2019-04-14T01:18:12.568Z,-1.20
2019-04-14T01:20:43.182Z,-1.30
2019-04-14T01:23:13.666Z,-1.40
2019-04-14T01:25:47.662Z,-1.30
2019-04-14T01:28:18.174Z,-1.40
2019-04-14T01:30:48.730Z,-1.30
2019-04-14T01:33:20.495Z,-1.20
2019-04-14T01:35:51.334Z,-1.20
2019-04-14T01:38:21.751Z,-1.50
2019-04-14T01:40:53.144Z,-1.50
2019-04-14T01:43:23.659Z,-1.30
2019-04-14T01:46:05.125Z,-1.50
2019-04-14T01:48:26.127Z,-1.50
2019-04-14T01:51:13.926Z,-1.60
2019-04-14T01:53:51.459Z,-1.60
2019-04-14T01:56:36.282Z,-1.50
2019-04-14T01:59:08.719Z,-1.50
2019-04-14T02:01:41.107Z,-1.50
2019-04-14T02:04:12.030Z,-1.50
2019-04-14T02:06:42.651Z,-1.40
2019-04-14T02:09:14.096Z,-1.50
2019-04-14T02:11:44.593Z,-1.40
2019-04-14T02:14:15.071Z,-1.50
2019-04-14T02:16:50.822Z,-1.40
2019-04-14T02:19:17.752Z,-1.40
2019-04-14T02:21:48.244Z,-1.30
2019-04-14T02:24:19.893Z,-1.30
2019-04-14T02:26:50.422Z,-1.30
2019-04-14T02:29:21.189Z,-1.30
2019-04-14T02:32:17.976Z,-1.30
2019-04-14T02:37:26.687Z,-1.40
2019-04-14T02:40:08.095Z,-1.40
2019-04-14T02:42:40.229Z,-1.40
2019-04-14T02:45:05.557Z,-1.50
2019-04-14T02:52:35.568Z,-1.60
2019-04-14T02:55:15.572Z,-1.80
2019-04-14T02:57:37.591Z,-1.60
2019-04-14T03:00:18.878Z,-1.70
2019-04-14T03:05:21.409Z,-1.90
2019-04-14T03:07:54.145Z,-1.90
2019-04-14T03:13:00.666Z,-2.10
2019-04-14T03:15:25.641Z,-2.20
2019-04-14T03:21:36.344Z,-2.30
2019-04-14T03:26:54.602Z,-2.30
2019-04-14T03:29:55.403Z,-2.40
2019-04-14T03:32:26.445Z,-2.40
2019-04-14T03:34:52.264Z,-2.30
2019-04-14T03:42:21.362Z,-2.50
2019-04-14T03:47:19.802Z,-2.30
2019-04-14T03:49:52.446Z,-2.30
2019-04-14T03:52:35.501Z,-2.20
2019-04-14T03:54:50.118Z,-2.30
2019-04-14T03:57:02.235Z,-2.20
2019-04-14T03:59:32.649Z,-2.10
2019-04-14T04:02:03.315Z,-2.40
2019-04-14T04:04:33.797Z,-2.20
2019-04-14T04:07:04.608Z,-2.00
2019-04-14T04:09:43.242Z,-2.10
2019-04-14T04:12:13.989Z,-2.10
2019-04-14T04:14:44.454Z,-2.00
2019-04-14T04:17:49.454Z,-1.80
2019-04-14T04:20:39.129Z,-1.90
2019-04-14T04:23:31.383Z,-2.00
2019-04-14T04:26:30.066Z,-1.70
2019-04-14T04:29:07.069Z,-1.50
2019-04-14T04:32:03.301Z,-1.60
2019-04-14T04:34:49.256Z,-1.30
2019-04-14T04:37:30.415Z,-1.40
2019-04-14T04:40:05.043Z,-1.10
2019-04-14T04:42:35.519Z,-1.00
2019-04-14T04:45:06.369Z,-1.00
2019-04-14T04:47:36.818Z,-0.70
2019-04-14T04:50:08.521Z,-0.60
2019-04-14T04:52:39.066Z,-0.60
2019-04-14T04:55:09.562Z,-0.20
2019-04-14T04:57:40.048Z,-0.50
2019-04-14T05:00:11.408Z,-0.30
2019-04-14T05:02:42.027Z,0.00
2019-04-14T05:05:47.692Z,0.00
2019-04-14T05:08:19.311Z,0.10
2019-04-14T05:10:56.749Z,0.30
2019-04-14T05:13:35.907Z,0.50
2019-04-14T05:16:06.617Z,0.60
2019-04-14T05:18:37.779Z,1.00
2019-04-14T05:21:08.271Z,1.00
2019-04-14T05:23:38.871Z,1.00
2019-04-14T05:26:09.338Z,1.30
2019-04-14T05:28:39.814Z,1.40
2019-04-14T05:31:10.261Z,1.50
2019-04-14T05:33:40.667Z,1.80
2019-04-14T05:36:11.132Z,2.20
2019-04-14T05:38:42.764Z,2.50
2019-04-14T05:41:13.707Z,2.30
2019-04-14T05:43:51.435Z,2.70
2019-04-14T05:46:16.412Z,2.80
2019-04-14T05:48:47.134Z,3.00
2019-04-14T05:51:20.167Z,3.20
2019-04-14T05:53:50.147Z,3.40
2019-04-14T05:56:20.970Z,3.40
2019-04-14T05:58:51.551Z,3.50
2019-04-14T06:01:22.557Z,3.50
2019-04-14T06:03:53.937Z,3.90
2019-04-14T06:06:24.328Z,4.00
2019-04-14T06:08:54.741Z,4.00
2019-04-14T06:11:25.170Z,4.00
2019-04-14T06:13:55.587Z,4.20
2019-04-14T06:16:26.026Z,4.40
2019-04-14T06:18:56.422Z,4.30
2019-04-14T06:21:27.018Z,4.50
2019-04-14T06:23:57.430Z,4.80
2019-04-14T06:26:27.849Z,4.80
2019-04-14T06:28:58.288Z,4.80
2019-04-14T06:31:42.428Z,5.00
2019-04-14T06:34:26.499Z,5.00
2019-04-14T06:37:14.661Z,5.40
2019-04-14T06:39:47.878Z,5.40
2019-04-14T06:42:18.410Z,5.40
2019-04-14T06:44:48.774Z,5.50
2019-04-14T06:47:19.099Z,5.60
2019-04-14T06:49:49.607Z,5.70
2019-04-14T06:52:20.026Z,5.90
2019-04-14T06:54:50.327Z,6.10
2019-04-14T06:57:20.674Z,6.10
2019-04-14T06:59:51.019Z,6.30
2019-04-14T07:02:21.371Z,6.40
2019-04-14T07:04:51.699Z,7.00
2019-04-14T07:07:22.163Z,6.80
2019-04-14T07:09:52.518Z,7.00
2019-04-14T07:12:22.852Z,7.00
2019-04-14T07:14:53.170Z,7.00
2019-04-14T07:17:23.518Z,7.20
2019-04-14T07:20:01.868Z,7.20
2019-04-14T07:22:25.853Z,7.30
2019-04-14T07:24:56.179Z,7.30
2019-04-14T07:27:26.555Z,7.40
2019-04-14T07:30:02.417Z,7.50
2019-04-14T07:32:47.107Z,7.50
2019-04-14T07:35:35.129Z,7.40
2019-04-14T07:38:16.514Z,7.40
2019-04-14T07:41:03.390Z,7.50
2019-04-14T07:43:58.881Z,7.60
2019-04-14T07:46:39.337Z,7.60
2019-04-14T07:49:23.955Z,7.70
2019-04-14T07:52:11.856Z,7.90
2019-04-14T07:54:51.367Z,8.00
2019-04-14T07:57:52.624Z,8.10
2019-04-14T08:00:50.631Z,8.20
2019-04-14T08:03:49.250Z,8.30
2019-04-14T08:06:19.861Z,8.30
2019-04-14T08:08:50.234Z,8.40
2019-04-14T08:11:20.592Z,8.10
2019-04-14T08:13:50.932Z,8.50
2019-04-14T08:16:21.302Z,8.60
2019-04-14T08:18:51.672Z,8.50
2019-04-14T08:21:22.040Z,8.70
2019-04-14T08:23:52.393Z,8.70
2019-04-14T08:26:22.876Z,8.80
2019-04-14T08:28:53.201Z,8.80
2019-04-14T08:31:23.570Z,8.80
2019-04-14T08:33:54.005Z,9.00
2019-04-14T08:36:24.369Z,9.00
2019-04-14T08:38:54.773Z,9.30
2019-04-14T08:41:26.309Z,9.30
2019-04-14T08:44:04.738Z,9.20
2019-04-14T08:47:00.187Z,9.40
2019-04-14T08:49:52.318Z,9.20
2019-04-14T08:52:41.580Z,9.40
2019-04-14T08:55:32.956Z,9.60
2019-04-14T08:58:07.990Z,9.80
2019-04-14T09:00:57.191Z,9.60
2019-04-14T09:03:44.357Z,9.70
2019-04-14T09:06:33.602Z,10.00
2019-04-14T09:09:16.751Z,9.80
2019-04-14T09:11:59.379Z,9.80
2019-04-14T09:14:29.803Z,9.80
2019-04-14T09:17:00.219Z,9.80
2019-04-14T09:19:30.599Z,9.80
2019-04-14T09:22:00.973Z,9.80
2019-04-14T09:24:31.357Z,9.80
2019-04-14T09:27:01.941Z,9.60
2019-04-14T09:29:32.304Z,9.80
2019-04-14T09:32:04.334Z,10.10
2019-04-14T09:34:34.762Z,10.20
2019-04-14T09:37:05.071Z,10.10
2019-04-14T09:39:35.468Z,10.30
2019-04-14T09:42:05.820Z,10.50
2019-04-14T09:44:36.190Z,10.60
2019-04-14T09:47:06.672Z,10.60
2019-04-14T09:49:37.051Z,10.70
2019-04-14T09:52:07.487Z,10.70
2019-04-14T09:54:37.985Z,10.70
2019-04-14T09:57:08.556Z,10.80
2019-04-14T09:59:38.930Z,10.90
2019-04-14T10:02:09.262Z,10.80
2019-04-14T10:04:39.749Z,10.90
2019-04-14T10:07:10.111Z,11.20
2019-04-14T10:09:40.477Z,11.40
2019-04-14T10:12:10.940Z,11.30
2019-04-14T10:14:41.326Z,11.30
2019-04-14T10:17:11.706Z,11.20
2019-04-14T10:19:42.133Z,11.10
2019-04-14T10:22:12.529Z,11.20
2019-04-14T10:24:42.915Z,11.40
2019-04-14T10:27:13.276Z,11.40
2019-04-14T10:29:43.762Z,11.60
2019-04-14T10:32:14.119Z,11.50
2019-04-14T10:34:44.498Z,11.50
2019-04-14T10:37:14.829Z,11.60
2019-04-14T10:39:45.231Z,11.60
2019-04-14T10:42:17.048Z,11.60
2019-04-14T10:44:47.535Z,11.60
2019-04-14T10:47:17.894Z,11.50
2019-04-14T10:49:48.202Z,11.50
2019-04-14T10:52:18.590Z,11.70
2019-04-14T10:54:48.935Z,11.40
2019-04-14T10:57:19.331Z,11.60
2019-04-14T10:59:49.734Z,11.50
2019-04-14T11:02:20.129Z,11.70
2019-04-14T11:04:50.665Z,11.70
2019-04-14T11:07:25.952Z,11.50
2019-04-14T11:09:56.352Z,11.30
2019-04-14T11:12:26.659Z,11.50
2019-04-14T11:14:57.055Z,11.70
2019-04-14T11:17:27.417Z,11.70
2019-04-14T11:19:57.785Z,11.60
2019-04-14T11:22:28.224Z,11.70
2019-04-14T11:24:58.583Z,11.80
2019-04-14T11:27:28.934Z,11.90
2019-04-14T11:29:59.291Z,11.90
2019-04-14T11:32:51.338Z,12.10
2019-04-14T11:35:43.526Z,11.90
2019-04-14T11:38:38.674Z,12.00
2019-04-14T11:41:13.019Z,12.00
2019-04-14T11:43:43.411Z,11.70
2019-04-14T11:46:13.888Z,11.70
2019-04-14T11:48:44.263Z,11.60
2019-04-14T11:51:14.722Z,11.90
2019-04-14T11:53:45.168Z,12.10
2019-04-14T11:56:15.510Z,12.00
2019-04-14T11:58:45.975Z,12.00
2019-04-14T12:01:40.993Z,12.20
2019-04-14T12:04:39.252Z,12.20
2019-04-14T12:07:26.429Z,12.30
2019-04-14T12:10:02.636Z,12.40
2019-04-14T12:12:33.046Z,12.20
2019-04-14T12:15:03.361Z,12.10
2019-04-14T12:17:33.915Z,12.20
2019-04-14T12:20:04.674Z,12.20
2019-04-14T12:22:35.030Z,12.00
2019-04-14T12:25:06.327Z,11.90
2019-04-14T12:27:36.678Z,11.90
2019-04-14T12:30:11.063Z,12.00
2019-04-14T12:32:41.733Z,12.20
2019-04-14T12:35:13.415Z,12.50
2019-04-14T12:37:43.849Z,12.50
2019-04-14T12:40:15.039Z,12.40
2019-04-14T12:42:54.163Z,12.30
2019-04-14T12:45:35.994Z,12.40
2019-04-14T12:48:24.507Z,12.40
2019-04-14T12:51:01.167Z,12.40
2019-04-14T12:53:31.578Z,12.40
2019-04-14T12:56:01.922Z,12.10
2019-04-14T12:58:43.047Z,12.20
2019-04-14T13:01:14.037Z,12.30
2019-04-14T13:03:44.394Z,12.40
2019-04-14T13:06:14.834Z,12.50
2019-04-14T13:08:45.193Z,12.40
2019-04-14T13:11:15.844Z,12.20
2019-04-14T13:13:46.210Z,12.30
2019-04-14T13:16:16.567Z,12.30
2019-04-14T13:18:47.010Z,12.60
2019-04-14T13:21:17.382Z,12.60
2019-04-14T13:23:47.749Z,12.40
2019-04-14T13:26:18.187Z,12.80
2019-04-14T13:28:48.648Z,12.90
2019-04-14T13:31:18.999Z,13.10
2019-04-14T13:33:49.345Z,13.80
2019-04-14T13:36:19.707Z,15.20
2019-04-14T13:39:02.468Z,16.80
2019-04-14T13:41:32.822Z,17.50
2019-04-14T13:44:03.200Z,19.00
2019-04-14T13:46:33.660Z,19.70
2019-04-14T13:49:03.989Z,18.00
2019-04-14T13:51:34.370Z,18.80
2019-04-14T13:54:04.834Z,19.60
2019-04-14T13:56:35.353Z,20.50
2019-04-14T13:59:05.907Z,19.60
2019-04-14T14:01:36.226Z,20.20
2019-04-14T14:04:06.635Z,21.50
2019-04-14T14:06:37.026Z,21.70
2019-04-14T14:09:12.017Z,21.30
2019-04-14T14:12:01.194Z,21.40
2019-04-14T14:14:44.100Z,22.10
2019-04-14T14:17:26.786Z,21.20
2019-04-14T14:20:02.499Z,21.70
2019-04-14T14:22:59.086Z,20.40
2019-04-14T14:25:30.068Z,19.00
2019-04-14T14:28:00.375Z,17.60
2019-04-14T14:30:30.727Z,16.40
2019-04-14T14:33:01.099Z,15.40
2019-04-14T14:35:31.478Z,14.80
2019-04-14T14:38:01.807Z,14.00
2019-04-14T14:40:32.155Z,13.50
2019-04-14T14:44:28.700Z,13.10
2019-04-14T14:47:20.675Z,12.80
2019-04-14T14:50:18.774Z,12.60
2019-04-14T14:52:49.125Z,12.40
2019-04-14T14:55:19.737Z,12.30
2019-04-14T14:57:50.089Z,12.60
2019-04-14T15:00:34.607Z,12.10
2019-04-14T15:03:05.079Z,11.70
2019-04-14T15:05:35.530Z,11.50
2019-04-14T15:08:06.008Z,11.30
2019-04-14T15:10:36.437Z,11.30
2019-04-14T15:13:06.825Z,11.30
2019-04-14T15:15:37.373Z,11.40
2019-04-14T15:18:07.846Z,11.40
2019-04-14T15:20:38.194Z,11.30
2019-04-14T15:23:08.650Z,11.20
2019-04-14T15:25:38.985Z,11.00
2019-04-14T15:28:09.349Z,11.00
2019-04-14T15:30:39.756Z,10.90
2019-04-14T15:33:10.111Z,10.80
2019-04-14T15:35:40.482Z,10.70
2019-04-14T15:38:10.816Z,10.50
2019-04-14T15:40:41.154Z,10.50
2019-04-14T15:43:11.552Z,10.50
2019-04-14T15:45:41.962Z,10.40
2019-04-14T15:48:12.311Z,10.50
2019-04-14T15:50:42.680Z,10.40
2019-04-14T15:53:13.122Z,10.30
2019-04-14T15:55:43.506Z,10.30
2019-04-14T15:58:35.367Z,10.20
2019-04-14T16:01:37.296Z,10.20
2019-04-14T16:04:15.174Z,10.10
2019-04-14T16:07:14.255Z,10.00
2019-04-14T16:10:06.555Z,9.90
2019-04-14T16:12:42.895Z,9.80
2019-04-14T16:15:19.123Z,9.70
2019-04-14T16:18:24.815Z,9.60
2019-04-14T16:20:55.161Z,9.50
2019-04-14T16:23:25.526Z,9.40
2019-04-14T16:26:14.757Z,9.30
2019-04-14T16:29:03.926Z,9.30
2019-04-14T16:32:02.476Z,9.30
2019-04-14T16:34:38.560Z,9.20
2019-04-14T16:37:08.939Z,9.10
2019-04-14T16:39:39.364Z,8.90
2019-04-14T16:42:09.721Z,8.80
2019-04-14T16:44:40.070Z,8.70
2019-04-14T16:47:10.418Z,8.60
2019-04-14T16:49:40.737Z,8.60
2019-04-14T16:52:25.439Z,8.50
2019-04-14T16:55:13.430Z,8.30
2019-04-14T16:58:01.248Z,8.20
2019-04-14T17:00:40.585Z,8.10
2019-04-14T17:03:10.927Z,8.00
2019-04-14T17:05:41.323Z,7.90
2019-04-14T17:08:11.776Z,7.70
2019-04-14T17:10:42.143Z,7.60
2019-04-14T17:13:12.519Z,7.50
2019-04-14T17:16:01.249Z,7.10
2019-04-14T17:18:40.518Z,7.30
2019-04-14T17:21:29.684Z,7.20
2019-04-14T17:24:16.517Z,7.00
2019-04-14T17:26:49.988Z,6.80
2019-04-14T17:29:35.537Z,6.70
2019-04-14T17:32:23.482Z,6.70
2019-04-14T17:35:24.825Z,6.30
2019-04-14T17:38:07.660Z,6.20
2019-04-14T17:41:06.064Z,6.10
2019-04-14T17:43:43.905Z,5.90
2019-04-14T17:46:28.819Z,5.90
2019-04-14T17:49:17.978Z,5.80
2019-04-14T17:51:51.817Z,5.50
2019-04-14T17:54:34.941Z,5.40
2019-04-14T17:57:29.920Z,5.30
2019-04-14T18:00:12.391Z,5.20
2019-04-14T18:03:00.890Z,5.30
2019-04-14T18:05:38.351Z,5.10
2019-04-14T18:08:26.058Z,4.90
2019-04-14T18:11:21.063Z,4.90
2019-04-14T18:14:05.450Z,4.90
2019-04-14T18:16:57.679Z,4.70
2019-04-14T18:19:59.049Z,4.40
2019-04-14T18:22:29.398Z,4.50
2019-04-14T18:24:59.853Z,4.20
2019-04-14T18:27:33.061Z,4.20
2019-04-14T18:30:15.954Z,4.00
2019-04-14T18:33:08.162Z,4.10
2019-04-14T18:36:00.822Z,4.00
2019-04-14T18:38:48.611Z,4.10
2019-04-14T18:41:38.815Z,3.90
2019-04-14T18:44:36.990Z,3.90
2019-04-14T18:47:26.207Z,3.70
2019-04-14T18:50:12.786Z,3.80
2019-04-14T18:53:02.000Z,3.80
2019-04-14T18:55:41.077Z,3.60
2019-04-14T18:58:29.202Z,3.50
2019-04-14T19:01:03.463Z,3.50
2019-04-14T19:03:33.774Z,3.40
2019-04-14T19:06:04.235Z,3.30
2019-04-14T19:08:34.641Z,3.30
2019-04-14T19:11:13.126Z,3.20
2019-04-14T19:13:44.112Z,3.30
2019-04-14T19:16:21.843Z,3.10
2019-04-14T19:18:55.815Z,3.30
2019-04-14T19:21:28.362Z,3.10
2019-04-14T19:23:58.751Z,3.20
2019-04-14T19:26:29.120Z,3.20
2019-04-14T19:28:59.451Z,3.20
2019-04-14T19:31:29.818Z,3.00
2019-04-14T19:34:00.126Z,2.90
2019-04-14T19:36:30.486Z,3.00
2019-04-14T19:39:00.915Z,3.00
2019-04-14T19:41:31.339Z,2.80
2019-04-14T19:44:01.705Z,2.70
2019-04-14T19:46:33.595Z,2.70
2019-04-14T19:49:04.054Z,2.70
2019-04-14T19:51:34.400Z,2.70
2019-04-14T19:54:05.631Z,2.60
2019-04-14T19:56:36.528Z,2.50
2019-04-14T19:59:07.099Z,2.60
2019-04-14T20:01:37.558Z,2.40
2019-04-14T20:04:08.080Z,2.60
2019-04-14T20:06:38.554Z,2.70
2019-04-14T20:09:09.013Z,2.50
2019-04-14T20:11:39.599Z,2.70
2019-04-14T20:14:10.023Z,2.70
2019-04-14T20:17:08.276Z,2.30
2019-04-14T20:19:45.219Z,2.30
2019-04-14T20:22:27.086Z,2.50
2019-04-14T20:25:07.267Z,2.50
2019-04-14T20:27:45.848Z,2.30
2019-04-14T20:30:41.145Z,2.20
2019-04-14T20:33:11.508Z,2.30
2019-04-14T20:35:41.890Z,2.20
2019-04-14T20:38:12.428Z,2.30
2019-04-14T20:40:42.823Z,2.20
2019-04-14T20:43:13.154Z,2.00
2019-04-14T20:45:43.842Z,2.20
2019-04-14T20:48:14.191Z,2.10
2019-04-14T20:50:44.724Z,1.90
2019-04-14T20:53:15.503Z,2.20
2019-04-14T20:55:47.244Z,1.90
2019-04-14T20:58:18.133Z,1.90
2019-04-14T21:00:48.463Z,2.00
2019-04-14T21:03:32.898Z,1.90
2019-04-14T21:06:11.557Z,1.60
2019-04-14T21:08:58.174Z,1.80
2019-04-14T21:11:47.539Z,1.70
2019-04-14T21:14:32.019Z,1.70
2019-04-14T21:17:08.280Z,1.50
2019-04-14T21:20:02.687Z,1.20
2019-04-14T21:22:54.624Z,1.20
2019-04-14T21:25:34.749Z,1.10
2019-04-14T21:28:28.302Z,1.20
2019-04-14T21:31:20.272Z,0.80
2019-04-14T21:34:18.799Z,0.80
2019-04-14T21:37:08.002Z,0.90
2019-04-14T21:40:06.271Z,0.80
2019-04-14T21:42:36.734Z,0.90
2019-04-14T21:45:08.195Z,0.60
2019-04-14T21:47:38.547Z,0.70
2019-04-14T21:50:09.587Z,0.60
2019-04-14T21:52:42.540Z,0.40
2019-04-14T21:55:13.013Z,0.50
2019-04-14T21:57:48.758Z,0.20
2019-04-14T22:00:45.324Z,0.40
2019-04-14T22:03:29.134Z,0.40
2019-04-14T22:06:18.616Z,0.30
2019-04-14T22:08:50.899Z,0.10
2019-04-14T22:11:25.949Z,0.20
2019-04-14T22:13:56.316Z,-0.10
2019-04-14T22:16:27.325Z,0.00
2019-04-14T22:18:57.796Z,-0.30
2019-04-14T22:21:28.214Z,-0.20
2019-04-14T22:24:01.634Z,-0.20
2019-04-14T22:26:30.630Z,-0.10
2019-04-14T22:29:02.553Z,-0.30
2019-04-14T22:31:33.158Z,-0.20
2019-04-14T22:34:03.516Z,-0.40
2019-04-14T22:36:33.951Z,-0.40
2019-04-14T22:39:07.272Z,-0.50
2019-04-14T22:41:37.595Z,-0.50
2019-04-14T22:44:08.083Z,-0.30
2019-04-14T22:46:38.413Z,-0.30
2019-04-14T22:49:08.792Z,-0.50
2019-04-14T22:51:39.117Z,-0.40
2019-04-14T22:54:09.563Z,-0.60
2019-04-14T22:56:39.944Z,-0.50
2019-04-14T22:59:10.273Z,-0.70
2019-04-14T23:01:43.539Z,-0.80
2019-04-14T23:04:34.510Z,-0.80
2019-04-14T23:07:18.655Z,-0.70
2019-04-14T23:10:06.712Z,-1.10
2019-04-14T23:12:48.291Z,-0.90
2019-04-14T23:15:40.359Z,-0.90
2019-04-14T23:18:21.708Z,-1.00
2019-04-14T23:21:10.932Z,-1.30
2019-04-14T23:23:50.454Z,-1.20
2019-04-14T23:26:20.922Z,-1.00
2019-04-14T23:28:51.277Z,-1.30
2019-04-14T23:31:21.743Z,-1.00
2019-04-14T23:33:52.070Z,-1.10
2019-04-14T23:36:22.451Z,-1.10
2019-04-14T23:38:52.776Z,-1.20
2019-04-14T23:41:23.162Z,-1.50
2019-04-14T23:43:53.523Z,-1.50
2019-04-14T23:46:24.035Z,-1.40
2019-04-14T23:48:54.403Z,-1.50
2019-04-14T23:51:24.748Z,-1.50
2019-04-14T23:53:55.098Z,-1.50
2019-04-14T23:56:25.466Z,-1.50
2019-04-14T23:58:55.805Z,-1.60
